Etusivu
METAR-TAF:

METAR-TAF

Lentoasemat :

Ouagadougoun kansainvälinen lentoasema

Ouagadougou, Burkina Faso

Leveyspiiri: 12-21N, Pituuspiiri: 001-31W, korkeus merenpinnasta: 316 m

Tämänhetkinen sää

Tämä raportti tehtiin 15 tuntia ja 52 minuuttia sitten, kello 20.00 UTC
Tuuli 6 kn idästä/koillisesta
Lämpötila 31°C
Kosteus 11%
Ilmanpaine 1013 hPa
Näkyvyys: 8000 m

METAR: DFFD 232000Z 06006KT 8000 NSC 31/M03 Q1013 NOSIG

Aika: 11:52 (11:52 UTC)

Sääennuste

Tämä raportti tehtiin 18 tuntia ja 52 minuuttia sitten, kello 17.00 UTC
Ennuste voimassa 23. päivästä klo 18 UTC - 24. päivään klo 24 UTC
Tuuli 10 kn koillisesta
Näkyvyys: 8000 m
Ajoittain
23. päivästä klo 18 UTC - 23. päivään klo 21 UTC
Näkyvyys: 4000 m
laajalle levinnyttä pölyä
Ajoittain
24. päivästä klo 06 UTC - 24. päivään klo 10 UTC
Näkyvyys: 2500 m
laajalle levinnyttä pölyä

TAF: DFFD 231700Z 2318/2424 05010KT 8000 NSC TEMPO 2318/2321 4000 DU TEMPO 2406/2410 2500 DU

Säähavainnot ja -ennusteet yli 4000 lentoasemalta (METAR- ja TAF-raportit).

Käytössä olevat sääasemat on merkitty karttaan keltaisilla ja punaisilla pisteillä.

Aseta hiiri pisteen päälle nähdäksesi sääaseman nimen.

Klikkaa sitten nähdäksesi säähavainnot ja -ennusteet.

Kartan vaihtaminen: klikkaa mustalla rastilla varustettuja vihreitä pisteitä, niin voit zoomata sisään; viivalla varustettua vihreää pistettä, niin voit zoomata ulos tai vihreitä nuolia, niin pääset viereisille kartoille.


METAR-TAF: